CheckWX is a tool to help pilots better visualize weather data.  It is not intended as a substitute for an official pre-flight weather briefing.

18:08:39 UTC

KNBG METAR
New Orleans NAS JRB / Alvin Callender Field Airport
New Orleans, Louisiana, USA
Current

14 mins ago

KNBG 171755Z 20012KT 10SM BKN015 OVC022 24/22 A2981 RMK AO2 SLP095 T02440217 10250 20200 50001 $
Observed
Feb-17 @ 17:55 UTC
Wind
  • 200° at 12 KTS
Visibility
10 SM
Flight Rules
MVFR
Cloud Levels
  • Broken at 1,500' AGL
  • Overcast at 2,200' AGL
Temperature
24°C / 75°F
Dewpoint
22°C / 72°F
Humidity
89%
Altimeter
29.81" Hg
Pressure
1009.5 hPa
Previous

1 hour ago

KNBG 171655Z 18011KT 10SM OVC012 24/22 A2983 RMK AO2 SLP099 T02440222 $
Observed
Feb-17 @ 16:55 UTC
Wind
  • 180° at 11 KTS
Visibility
10 SM
Flight Rules
MVFR
Cloud Levels
  • Overcast at 1,200' AGL
Temperature
24°C / 75°F
Dewpoint
22°C / 72°F
Humidity
89%
Altimeter
29.83" Hg
Pressure
1009.9 hPa
Previous

2 hours ago

KNBG 171555Z 17015KT 10SM BKN013 24/22 A2982 RMK AO2 SLP098 T02390217 $
Observed
Feb-17 @ 15:55 UTC
Wind
  • 170° at 15 KTS
Visibility
10 SM
Flight Rules
MVFR
Cloud Levels
  • Broken at 1,300' AGL
Temperature
24°C / 75°F
Dewpoint
22°C / 72°F
Humidity
89%
Altimeter
29.82" Hg
Pressure
1009.8 hPa